KHYA/HYA METAR and TAF weather

Enter ICAO airport designator
Station Type Date Time Source
KHYA METAR 2018/12/10 07:56 UTC NOAA

KHYA 100756Z AUTO 30004KT 10SM CLR M01/M07 A3005 RMK AO2 SLP176 T10111067


Station Type Date Time Source
KHYA Decoded METAR 2018/12/10 07:56 UTC NOAA

HYANNIS BARNSTABLE BOARDMN, MA, United States (KHYA) 41-40N 070-16W 22M
Dec 10, 2018 - 02:56 AM EST / 2018.12.10 0756 UTC
Wind: from the WNW (300 degrees) at 5 MPH (4 KT):0
Visibility: 10 mile(s):0
Sky conditions: clear
Temperature: 30.0 F (-1.1 C)
Windchill: 24 F (-4 C):1
Dew Point: 19.9 F (-6.7 C)
Relative Humidity: 65%
Pressure (altimeter): 30.05 in. Hg (1017 hPa)
ob: KHYA 100756Z AUTO 30004KT 10SM CLR M01/M07 A3005 RMK AO2 SLP176 T10111067
cycle: 8

Station Type Date Time Source
KHYA TAF 2018/12/10 06:42 UTC NOAA

TAF KHYA 100540Z 1006/1106 28006KT P6SM BKN250
FM101200 33010G17KT P6SM SCT150
FM101500 34011KT P6SM SCT250
FM101700 36011KT P6SM SCT040
FM102000 36011KT P6SM SCT025
FM102200 36011KT P6SM SCT045


Example: see airport list